Time;durP1;ratioP1;P1;durP2;ratioP2;P2;SDS_P1;SDS_P2;PMS_P1;PMS_P2;Temp;Humidity;BMP_temperature;BMP_pressure;BME280_temperature;BME280_humidity;BME280_pressure;Samples;Min_cycle;Max_cycle;Signal;HPM_P1;HPM_P2
2022/02/02 00:00:38;;;;;;;22.55;5.05;;;6.90;99.90;;;;;;4945829;28;20133;-44
2022/02/02 00:03:09;;;;;;;20.38;4.22;;;6.90;99.90;;;;;;4969115;28;20055;-44
2022/02/02 00:08:23;;;;;;;26.45;5.03;;;6.80;99.90;;;;;;4951377;28;20047;-59
2022/02/02 00:18:51;;;;;;;38.95;7.97;;;6.80;99.90;;;;;;4974323;28;20558;-59
2022/02/02 00:21:25;;;;;;;38.70;6.85;;;6.80;99.90;;;;;;4955075;28;20563;-48
2022/02/02 00:23:57;;;;;;;28.48;6.03;;;6.80;99.90;;;;;;4960632;28;20058;-59
2022/02/02 00:26:32;;;;;;;28.00;5.90;;;6.80;99.90;;;;;;4959241;28;20058;-59
2022/02/02 00:29:05;;;;;;;24.08;5.95;;;6.70;99.90;;;;;;4955505;28;20047;-59
2022/02/02 00:31:41;;;;;;;25.33;5.32;;;6.70;99.90;;;;;;4962135;28;20088;-59
2022/02/02 00:34:13;;;;;;;23.60;4.97;;;6.70;99.90;;;;;;4963972;28;20076;-59
2022/02/02 00:36:48;;;;;;;;;;;6.70;99.90;;;;;;4960906;28;20055;-60
2022/02/02 00:39:14;;;;;;;20.13;3.63;;;6.60;99.90;;;;;;4956476;28;19930;-59
2022/02/02 00:41:40;;;;;;;17.42;3.70;;;6.60;99.90;;;;;;4962052;28;20066;-59
2022/02/02 00:44:06;;;;;;;22.00;4.32;;;6.50;99.90;;;;;;4965104;28;20596;-43
2022/02/02 00:46:33;;;;;;;24.67;4.25;;;6.50;99.90;;;;;;4945046;28;20059;-44
2022/02/02 00:49:02;;;;;;;16.40;4.22;;;6.40;99.90;;;;;;4950911;28;20128;-59
2022/02/02 00:51:46;;;;;;;16.83;3.17;;;6.50;99.90;;;;;;4994240;28;20117;-59
2022/02/02 00:54:24;;;;;;;15.70;3.33;;;6.40;99.90;;;;;;4963376;28;20537;-59
2022/02/02 00:56:51;;;;;;;17.50;4.20;;;6.50;99.90;;;;;;4961774;28;20548;-45
2022/02/02 00:59:18;;;;;;;22.10;4.65;;;6.50;99.90;;;;;;4951920;28;20051;-45
2022/02/02 01:01:45;;;;;;;23.52;4.28;;;6.40;99.90;;;;;;4960987;28;20477;-43
2022/02/02 01:04:12;;;;;;;24.95;5.22;;;6.50;99.90;;;;;;4951395;28;20046;-43
2022/02/02 01:06:43;;;;;;;21.88;4.88;;;6.50;99.90;;;;;;4961396;28;20047;-45
2022/02/02 01:15:06;;;;;;;20.48;4.68;;;6.60;99.90;;;;;;4962671;28;20826;-45
2022/02/02 01:19:42;;;;;;;19.13;4.28;;;6.70;99.90;;;;;;4979892;28;20145;-47
2022/02/02 01:29:56;;;;;;;26.92;5.82;;;6.70;99.90;;;;;;4938498;28;20086;-59
2022/02/02 01:32:22;;;;;;;18.58;4.63;;;6.70;99.90;;;;;;4961465;28;20464;-59
2022/02/02 01:34:48;;;;;;;21.85;3.88;;;6.70;99.90;;;;;;4962016;28;20050;-59
2022/02/02 01:37:18;;;;;;;23.23;5.03;;;6.70;99.90;;;;;;4963970;28;20116;-59
2022/02/02 01:39:47;;;;;;;20.75;4.22;;;6.70;99.90;;;;;;4952885;28;20525;-59
2022/02/02 01:42:16;;;;;;;19.65;4.13;;;6.70;99.90;;;;;;4952269;28;20058;-60
2022/02/02 01:45:01;;;;;;;22.70;4.50;;;6.80;99.90;;;;;;4961634;28;20062;-59
2022/02/02 01:47:34;;;;;;;21.02;3.95;;;6.80;99.90;;;;;;4951661;28;20581;-59
2022/02/02 01:50:20;;;;;;;22.55;4.15;;;6.80;99.90;;;;;;4972433;28;20091;-59
2022/02/02 01:53:07;;;;;;;15.63;3.63;;;6.80;99.90;;;;;;4968790;28;20137;-60
2022/02/02 01:55:38;;;;;;;19.35;3.67;;;6.80;99.90;;;;;;4962053;28;20187;-44
2022/02/02 01:58:38;;;;;;;22.98;5.28;;;6.80;99.90;;;;;;4951173;28;20058;-59
2022/02/02 02:01:06;;;;;;;23.23;4.72;;;6.90;99.90;;;;;;4955837;28;20042;-48
2022/02/02 02:03:34;;;;;;;19.85;4.18;;;6.80;99.90;;;;;;4939074;28;20185;-43
2022/02/02 02:06:00;;;;;;;26.80;4.47;;;6.80;99.90;;;;;;4966623;28;20059;-43
2022/02/02 02:08:26;;;;;;;26.23;4.43;;;6.80;99.90;;;;;;4960627;28;20055;-59
2022/02/02 02:10:53;;;;;;;20.27;4.93;;;6.90;99.90;;;;;;4926426;28;20043;-59
2022/02/02 02:15:48;;;;;;;20.75;4.60;;;6.90;99.90;;;;;;4959619;28;20047;-59
2022/02/02 02:18:14;;;;;;;26.25;4.72;;;6.90;99.90;;;;;;4957430;28;20354;-59
2022/02/02 02:20:41;;;;;;;22.58;5.10;;;6.90;99.90;;;;;;5011626;28;20054;-45
2022/02/02 02:23:07;;;;;;;22.15;5.10;;;6.80;99.90;;;;;;4985101;28;20086;-47
2022/02/02 02:25:39;;;;;;;32.65;6.13;;;6.70;99.90;;;;;;4944780;28;20634;-47
2022/02/02 02:28:17;;;;;;;29.08;6.13;;;6.60;99.90;;;;;;4930848;28;20055;-46
2022/02/02 02:38:56;;;;;;;23.73;5.03;;;6.20;99.90;;;;;;4971163;28;20074;-44
2022/02/02 02:58:06;;;;;;;24.27;5.28;;;6.00;99.90;;;;;;4966749;28;20075;-59
2022/02/02 03:30:15;;;;;;;24.75;4.95;;;6.60;99.90;;;;;;4972468;28;20051;-44
2022/02/02 03:33:06;;;;;;;26.38;4.00;;;6.70;99.90;;;;;;4935766;28;20059;-44
2022/02/02 04:03:25;;;;;;;29.92;5.97;;;6.70;99.90;;;;;;4942899;28;20610;-43
2022/02/02 04:05:53;;;;;;;26.15;5.28;;;6.60;99.90;;;;;;4968559;28;20530;-44
2022/02/02 04:10:45;;;;;;;27.48;6.10;;;6.60;99.90;;;;;;4966991;28;20651;-59
2022/02/02 04:13:22;;;;;;;24.10;4.88;;;6.60;99.90;;;;;;4951209;28;20111;-59
2022/02/02 05:09:47;;;;;;;17.58;4.03;;;6.30;99.90;;;;;;4963541;28;20043;-59
2022/02/02 05:50:19;;;;;;;20.45;4.93;;;6.20;99.90;;;;;;4952672;28;20047;-44
2022/02/02 05:52:46;;;;;;;23.95;3.97;;;6.30;99.90;;;;;;5007121;28;20429;-47
2022/02/02 05:55:13;;;;;;;25.38;4.70;;;6.30;99.90;;;;;;4964182;28;20038;-59
2022/02/02 05:57:45;;;;;;;23.83;4.70;;;6.30;99.90;;;;;;4968202;28;20082;-59
2022/02/02 06:00:12;;;;;;;26.85;4.32;;;6.20;99.90;;;;;;4981659;28;20058;-59
2022/02/02 06:02:46;;;;;;;25.20;4.88;;;6.20;99.90;;;;;;4948700;28;20476;-59
2022/02/02 06:05:13;;;;;;;19.65;4.43;;;6.20;99.90;;;;;;4953588;28;20050;-59
2022/02/02 06:07:42;;;;;;;20.13;4.75;;;6.20;99.90;;;;;;4944213;28;20602;-59
2022/02/02 06:10:12;;;;;;;22.42;4.47;;;6.20;99.90;;;;;;4966058;28;20447;-59
2022/02/02 06:12:41;;;;;;;23.67;4.97;;;6.20;99.90;;;;;;4955834;28;20047;-59
2022/02/02 06:15:11;;;;;;;20.27;4.93;;;6.10;99.90;;;;;;4928059;28;20585;-45
2022/02/02 06:17:49;;;;;;;20.55;4.63;;;6.10;99.90;;;;;;4956482;28;20057;-50
2022/02/02 06:20:16;;;;;;;24.02;4.38;;;6.10;99.90;;;;;;4955672;28;20054;-46
2022/02/02 06:22:50;;;;;;;29.50;6.40;;;6.10;99.90;;;;;;4959331;28;20059;-47
2022/02/02 06:25:29;;;;;;;22.65;4.70;;;6.10;99.90;;;;;;5014486;28;21385;-48
2022/02/02 06:28:06;;;;;;;26.88;5.00;;;6.10;99.90;;;;;;5005384;28;20082;-47
2022/02/02 06:30:34;;;;;;;24.13;4.80;;;6.00;99.90;;;;;;5012237;28;20047;-59
2022/02/02 06:33:09;;;;;;;26.58;4.65;;;6.00;99.90;;;;;;4994106;28;20500;-45
2022/02/02 06:35:36;;;;;;;23.50;4.68;;;6.00;99.90;;;;;;4980946;28;20054;-44
2022/02/02 06:38:03;;;;;;;25.33;5.18;;;5.90;99.90;;;;;;5003380;28;20491;-59
2022/02/02 06:40:29;;;;;;;28.45;5.15;;;5.90;99.90;;;;;;5002441;28;20052;-60
2022/02/02 06:42:56;;;;;;;22.73;5.43;;;5.90;99.90;;;;;;5010325;28;20764;-59
2022/02/02 06:45:24;;;;;;;23.63;4.60;;;5.90;99.90;;;;;;5000507;28;20105;-44
2022/02/02 06:47:50;;;;;;;18.95;4.20;;;5.90;99.90;;;;;;5036212;28;20058;-59
2022/02/02 06:50:29;;;;;;;29.77;5.28;;;5.80;99.90;;;;;;4994294;28;20108;-59
2022/02/02 06:56:02;;;;;;;26.55;4.97;;;5.90;99.90;;;;;;4993235;28;20074;-59
2022/02/02 06:59:04;;;;;;;22.65;5.15;;;5.90;99.90;;;;;;4987174;28;20299;-46
2022/02/02 07:02:25;;;;;;;22.83;4.13;;;5.90;99.90;;;;;;5008737;28;20440;-47
2022/02/02 07:07:54;;;;;;;33.17;4.95;;;5.90;99.90;;;;;;4998215;28;20059;-59
2022/02/02 07:10:36;;;;;;;17.88;3.97;;;5.90;99.90;;;;;;4993395;28;20159;-59
2022/02/02 07:21:31;;;;;;;22.33;4.47;;;5.90;99.90;;;;;;4950897;28;20096;-59
2022/02/02 07:29:19;;;;;;;18.30;4.30;;;5.90;99.90;;;;;;4970243;28;20088;-59
2022/02/02 07:34:47;;;;;;;24.05;4.40;;;6.00;99.90;;;;;;4971186;28;20637;-59
2022/02/02 07:37:26;;;;;;;24.08;4.70;;;6.00;99.90;;;;;;4979885;28;20391;-59
2022/02/02 07:39:55;;;;;;;21.27;4.43;;;6.10;99.90;;;;;;4965082;28;20173;-59
2022/02/02 07:42:24;;;;;;;25.73;4.07;;;6.20;99.90;;;;;;4956644;28;20177;-59
2022/02/02 07:44:54;;;;;;;24.55;4.75;;;6.30;99.90;;;;;;4961020;28;20425;-59
2022/02/02 07:47:22;;;;;;;24.40;5.68;;;6.30;99.90;;;;;;4977260;28;20541;-55
2022/02/02 07:49:53;;;;;;;28.70;5.10;;;6.30;99.90;;;;;;4961414;28;20046;-47
2022/02/02 07:52:20;;;;;;;26.30;4.43;;;6.30;99.90;;;;;;4959596;28;20130;-47
2022/02/02 07:54:49;;;;;;;24.55;4.93;;;6.30;99.90;;;;;;4956254;28;20055;-60
2022/02/02 07:57:20;;;;;;;30.10;5.47;;;6.30;99.90;;;;;;4955384;28;20050;-46
2022/02/02 07:59:55;;;;;;;30.17;6.60;;;6.30;99.90;;;;;;4974817;28;20050;-48
2022/02/02 08:03:10;;;;;;;32.25;6.45;;;6.30;99.90;;;;;;5010246;28;20314;-44
2022/02/02 08:05:12;;;;;;;29.52;5.25;;;6.30;99.90;;;;;;4984995;28;20522;-61
2022/02/02 08:07:47;;;;;;;27.67;4.47;;;6.30;99.90;;;;;;4965251;28;20054;-60
2022/02/02 08:10:18;;;;;;;22.52;4.72;;;6.40;99.90;;;;;;4964229;28;20194;-61
2022/02/02 08:12:51;;;;;;;27.13;5.63;;;6.40;99.90;;;;;;4973663;28;20047;-62
2022/02/02 08:15:20;;;;;;;30.10;5.05;;;6.30;99.90;;;;;;4968403;28;20047;-50
2022/02/02 08:17:49;;;;;;;27.15;5.93;;;6.40;99.90;;;;;;4960298;28;20066;-61
2022/02/02 08:20:15;;;;;;;29.77;4.75;;;6.40;99.90;;;;;;4976218;28;20411;-63
2022/02/02 08:22:41;;;;;;;26.23;5.80;;;6.40;99.90;;;;;;4967982;28;21775;-47
2022/02/02 08:25:10;;;;;;;28.48;5.57;;;6.40;99.90;;;;;;4963306;28;20046;-61
2022/02/02 08:27:41;;;;;;;24.98;5.18;;;6.40;99.90;;;;;;4969024;28;20043;-61
2022/02/02 08:30:12;;;;;;;26.57;6.07;;;6.50;99.90;;;;;;4966363;28;20108;-61
2022/02/02 08:32:50;;;;;;;32.00;6.07;;;6.50;99.90;;;;;;4958459;28;20108;-46
2022/02/02 08:35:22;;;;;;;27.92;5.13;;;6.50;99.90;;;;;;4970635;28;20062;-60
2022/02/02 08:37:57;;;;;;;22.50;4.97;;;6.50;99.90;;;;;;4985033;28;20061;-48
2022/02/02 08:42:49;;;;;;;29.17;6.57;;;6.60;99.90;;;;;;4962574;28;20349;-61
2022/02/02 08:45:26;;;;;;;26.50;5.40;;;6.70;99.90;;;;;;4986753;28;20043;-62
2022/02/02 08:47:59;;;;;;;27.88;4.78;;;6.90;99.90;;;;;;4949238;28;20173;-61
2022/02/02 08:50:45;;;;;;;23.75;4.30;;;7.40;99.90;;;;;;4964733;28;20349;-45
2022/02/02 08:58:39;;;;;;;26.95;5.13;;;8.40;99.90;;;;;;4958770;28;20050;-61
2022/02/02 09:01:27;;;;;;;24.38;8.68;;;8.70;99.90;;;;;;4950072;28;20047;-58
2022/02/02 09:06:38;;;;;;;24.73;6.03;;;9.30;99.90;;;;;;4963497;28;20082;-59
2022/02/02 09:09:38;;;;;;;22.55;6.88;;;9.60;99.90;;;;;;4974088;28;20576;-59
2022/02/02 09:36:17;;;;;;;40.58;24.52;;;11.10;99.90;;;;;;4948412;28;20050;-58
2022/02/02 09:38:44;;;;;;;28.35;9.65;;;11.60;99.90;;;;;;4960639;28;20475;-56
2022/02/02 09:43:47;;;;;;;20.80;5.15;;;12.00;99.90;;;;;;4958262;28;20055;-56
2022/02/02 09:46:18;;;;;;;21.17;4.88;;;12.10;99.90;;;;;;4984902;28;20043;-56
2022/02/02 09:48:51;;;;;;;19.27;4.85;;;11.90;99.90;;;;;;4949061;28;20074;-56
2022/02/02 09:51:30;;;;;;;19.70;4.63;;;11.50;99.90;;;;;;4956428;28;20391;-56
2022/02/02 09:54:06;;;;;;;21.33;5.22;;;11.30;99.90;;;;;;4952354;28;20062;-57
2022/02/02 10:05:05;;;;;;;43.15;21.00;;;12.50;99.90;;;;;;4937771;28;20059;-56
2022/02/02 10:15:29;;;;;;;21.58;6.63;;;10.80;99.90;;;;;;4966186;28;20068;-57
2022/02/02 10:18:12;;;;;;;24.35;8.52;;;10.70;99.90;;;;;;4953189;28;20070;-56
2022/02/02 10:20:39;;;;;;;25.77;7.03;;;10.50;99.90;;;;;;4986981;28;20461;-54
2022/02/02 10:23:07;;;;;;;14.32;3.72;;;10.40;99.90;;;;;;4960568;28;21219;-60
2022/02/02 10:25:44;;;;;;;22.25;7.88;;;10.40;99.90;;;;;;4943116;28;20491;-61
2022/02/02 10:28:20;;;;;;;21.73;3.85;;;10.20;99.90;;;;;;4955528;28;20047;-62
2022/02/02 10:30:49;;;;;;;20.77;4.03;;;10.20;99.90;;;;;;4958586;28;20054;-61
2022/02/02 10:33:25;;;;;;;16.52;4.22;;;10.30;99.90;;;;;;4969543;28;20509;-61
2022/02/02 10:35:55;;;;;;;17.10;3.65;;;10.70;99.90;;;;;;4944309;28;20517;-60
2022/02/02 10:38:27;;;;;;;22.02;8.88;;;11.10;99.90;;;;;;4943159;28;20054;-47
2022/02/02 10:43:53;;;;;;;19.05;4.03;;;10.80;99.90;;;;;;4956394;28;20457;-46
2022/02/02 10:49:04;;;;;;;;;;;9.90;99.90;;;;;;4979314;28;20047;-49
2022/02/02 10:54:15;;;;;;;17.48;4.03;;;10.90;99.90;;;;;;4955953;28;20130;-47
2022/02/02 11:00:01;;;;;;;15.90;4.50;;;12.10;99.90;;;;;;4985496;28;20085;-46
2022/02/02 11:07:44;;;;;;;22.45;4.00;;;12.60;99.90;;;;;;4962616;28;20047;-45
2022/02/02 11:10:13;;;;;;;11.57;2.85;;;12.10;99.90;;;;;;4947878;28;20506;-49
2022/02/02 11:12:41;;;;;;;16.85;3.38;;;11.40;99.90;;;;;;4955645;28;20394;-45
2022/02/02 11:15:24;;;;;;;15.57;3.40;;;11.40;99.90;;;;;;4963829;28;20597;-43
2022/02/02 11:18:09;;;;;;;20.80;4.22;;;10.70;99.90;;;;;;4964666;28;20073;-45
2022/02/02 11:20:37;;;;;;;19.60;3.55;;;10.80;99.90;;;;;;4964902;28;20051;-43
2022/02/02 11:23:06;;;;;;;15.57;3.90;;;10.80;99.90;;;;;;4955903;28;20485;-44
2022/02/02 11:25:35;;;;;;;12.52;2.75;;;11.10;99.90;;;;;;4949213;28;20116;-44
2022/02/02 11:28:05;;;;;;;17.33;3.60;;;10.80;99.90;;;;;;4963998;28;20077;-60
2022/02/02 11:30:32;;;;;;;14.10;2.42;;;11.10;99.90;;;;;;4963403;28;20091;-61
2022/02/02 11:33:18;;;;;;;13.32;2.97;;;11.00;99.90;;;;;;4964495;28;20798;-61
2022/02/02 11:35:46;;;;;;;14.00;2.70;;;11.30;99.90;;;;;;4957461;28;20086;-62
2022/02/02 11:38:24;;;;;;;14.95;2.85;;;11.60;99.90;;;;;;4964637;28;20097;-62
2022/02/02 11:41:14;;;;;;;12.73;2.38;;;11.20;99.90;;;;;;4946873;28;20051;-61
2022/02/02 11:43:52;;;;;;;15.05;2.90;;;11.20;99.90;;;;;;4970500;28;20094;-60
2022/02/02 11:46:40;;;;;;;13.13;2.67;;;10.80;99.90;;;;;;4984901;28;20042;-62
2022/02/02 11:49:13;;;;;;;16.35;3.53;;;10.70;99.90;;;;;;4955005;28;20428;-62
2022/02/02 11:51:57;;;;;;;13.90;3.10;;;10.60;99.90;;;;;;4963189;28;20043;-62
2022/02/02 11:54:33;;;;;;;16.45;3.20;;;10.50;99.90;;;;;;4963897;28;20418;-62
2022/02/02 11:57:03;;;;;;;14.65;3.55;;;10.50;99.90;;;;;;4964839;28;20443;-61
2022/02/02 12:07:57;;;;;;;9.85;2.65;;;9.90;99.90;;;;;;4977291;28;20459;-62
2022/02/02 12:10:54;;;;;;;15.05;3.10;;;9.80;99.90;;;;;;4985052;28;20054;-44
2022/02/02 12:19:42;;;;;;;12.48;2.95;;;9.90;99.90;;;;;;4962899;28;20050;-61
2022/02/02 12:49:47;;;;;;;10.98;2.10;;;13.00;99.90;;;;;;4997424;28;20051;-61
2022/02/02 12:57:38;;;;;;;8.82;2.10;;;14.80;66.00;;;;;;4961832;28;20051;-49
2022/02/02 13:00:09;;;;;;;11.60;2.60;;;14.50;64.00;;;;;;4962327;28;20398;-47
2022/02/02 13:02:38;;;;;;;7.00;2.00;;;15.20;74.80;;;;;;4961836;28;20094;-50
2022/02/02 13:05:07;;;;;;;10.93;2.20;;;15.60;70.10;;;;;;4974616;28;20870;-47
2022/02/02 13:07:34;;;;;;;13.55;2.42;;;14.80;70.60;;;;;;4986689;28;20100;-47
2022/02/02 13:10:04;;;;;;;9.05;2.00;;;14.10;72.10;;;;;;4989483;28;20101;-46
2022/02/02 13:12:41;;;;;;;14.02;3.40;;;13.80;83.30;;;;;;4956525;28;20145;-58
2022/02/02 13:23:31;;;;;;;15.65;2.92;;;12.30;99.90;;;;;;4964770;28;20051;-58
2022/02/02 13:26:02;;;;;;;12.32;2.67;;;12.00;99.90;;;;;;4966164;28;20138;-50
2022/02/02 13:29:01;;;;;;;14.05;4.72;;;11.90;99.90;;;;;;4974410;28;20043;-47
2022/02/02 13:31:42;;;;;;;16.83;3.03;;;11.60;99.90;;;;;;4971520;28;20074;-48
2022/02/02 13:34:38;;;;;;;13.87;2.40;;;11.60;99.90;;;;;;4959591;28;20043;-48
2022/02/02 14:33:32;;;;;;;19.73;4.57;;;11.90;99.90;;;;;;4969222;28;20104;-49
2022/02/02 14:36:01;;;;;;;13.73;2.97;;;12.60;99.90;;;;;;4960131;28;20066;-51
2022/02/02 14:38:35;;;;;;;15.43;3.60;;;12.80;99.90;;;;;;4961111;28;20049;-51
2022/02/02 14:41:20;;;;;;;13.20;3.03;;;13.20;99.90;;;;;;4955868;28;20788;-50
2022/02/02 14:43:57;;;;;;;16.35;3.85;;;14.20;99.90;;;;;;4957385;28;20051;-52
2022/02/02 14:46:32;;;;;;;14.70;3.85;;;14.90;95.40;;;;;;4980831;28;20085;-50
2022/02/02 14:49:09;;;;;;;19.67;3.83;;;15.70;75.20;;;;;;4957467;28;20043;-51
2022/02/02 15:06:08;;;;;;;16.60;3.45;;;15.20;66.70;;;;;;4937419;28;20047;-50
2022/02/02 15:09:09;;;;;;;16.52;5.25;;;15.60;67.30;;;;;;4967842;28;20062;-48
2022/02/02 15:16:59;;;;;;;12.20;2.85;;;15.20;61.70;;;;;;4965340;28;20561;-49
2022/02/02 15:27:52;;;;;;;12.60;2.78;;;14.30;68.00;;;;;;4962271;28;20055;-63
2022/02/02 15:30:46;;;;;;;15.68;3.88;;;13.90;69.70;;;;;;4974939;28;20046;-49
2022/02/02 15:33:19;;;;;;;17.95;4.18;;;13.80;75.90;;;;;;4973485;28;20426;-51
2022/02/02 15:35:46;;;;;;;20.55;4.63;;;13.30;88.50;;;;;;4958044;28;20589;-49
2022/02/02 15:38:21;;;;;;;18.08;4.55;;;13.00;97.70;;;;;;4958146;28;20093;-63
2022/02/02 15:40:55;;;;;;;15.98;3.75;;;12.70;99.90;;;;;;4966425;28;20046;-63
2022/02/02 15:57:57;;;;;;;14.63;4.05;;;10.30;99.90;;;;;;4960051;28;20587;-63
2022/02/02 16:05:27;;;;;;;18.33;4.15;;;9.40;99.90;;;;;;4947716;28;20558;-63
2022/02/02 16:07:56;;;;;;;18.90;4.55;;;9.10;99.90;;;;;;4960335;28;20061;-63
2022/02/02 16:10:38;;;;;;;17.73;3.47;;;8.90;99.90;;;;;;4991608;28;20211;-64
2022/02/02 16:13:04;;;;;;;13.05;3.40;;;8.70;99.90;;;;;;4937308;28;20051;-64
2022/02/02 16:15:32;;;;;;;20.42;4.22;;;8.60;99.90;;;;;;4987880;28;20588;-64
2022/02/02 16:18:48;;;;;;;15.98;3.08;;;8.50;99.90;;;;;;4966269;28;20428;-64
2022/02/02 16:31:57;;;;;;;14.23;2.97;;;7.90;99.90;;;;;;4968331;28;20051;-46
2022/02/02 16:36:54;;;;;;;12.80;2.63;;;7.70;99.90;;;;;;4956809;28;20058;-48
2022/02/02 16:39:23;;;;;;;12.55;2.58;;;7.70;99.90;;;;;;4955200;28;20047;-48
2022/02/02 16:44:34;;;;;;;11.40;2.88;;;7.50;99.90;;;;;;4960799;28;20043;-47
2022/02/02 16:47:00;;;;;;;11.52;2.22;;;7.40;99.90;;;;;;4960194;28;20137;-50
2022/02/02 16:49:27;;;;;;;9.70;2.33;;;7.30;99.90;;;;;;4962188;28;20063;-59
2022/02/02 16:51:53;;;;;;;15.73;2.67;;;7.20;99.90;;;;;;4957677;28;20043;-64
2022/02/02 16:54:28;;;;;;;16.45;2.75;;;7.10;99.90;;;;;;4976506;28;20039;-63
2022/02/02 17:36:54;;;;;;;17.58;3.80;;;6.00;99.90;;;;;;4962664;28;20107;-48
2022/02/02 17:39:26;;;;;;;19.10;3.92;;;6.00;99.90;;;;;;4960479;28;20432;-47
2022/02/02 18:19:59;;;;;;;10.55;3.13;;;5.10;99.90;;;;;;4949935;28;20108;-50
2022/02/02 18:22:31;;;;;;;17.23;4.43;;;5.10;99.90;;;;;;4972570;28;20053;-50
2022/02/02 18:25:05;;;;;;;16.55;3.60;;;5.00;99.90;;;;;;4982647;28;20545;-48
2022/02/02 18:27:51;;;;;;;17.75;4.38;;;5.00;99.90;;;;;;4958021;28;20054;-49
2022/02/02 18:30:36;;;;;;;13.68;3.38;;;4.90;99.90;;;;;;4946681;28;20054;-52
2022/02/02 18:35:52;;;;;;;16.50;4.03;;;4.90;99.90;;;;;;4957470;28;20046;-49
2022/02/02 18:48:57;;;;;;;15.82;3.47;;;4.90;99.90;;;;;;4952807;28;20481;-51
2022/02/02 18:51:48;;;;;;;15.35;3.40;;;4.80;99.90;;;;;;4952644;28;20055;-50
2022/02/02 19:02:34;;;;;;;17.73;3.55;;;4.80;99.90;;;;;;4967547;28;20047;-51
2022/02/02 19:05:14;;;;;;;15.73;3.95;;;4.80;99.90;;;;;;4952180;28;20043;-51
2022/02/02 19:37:24;;;;;;;21.33;5.57;;;4.80;99.90;;;;;;4954159;28;20375;-48
2022/02/02 19:40:08;;;;;;;18.92;4.57;;;4.80;99.90;;;;;;4959739;28;20051;-52
2022/02/02 20:12:38;;;;;;;19.17;6.55;;;4.90;99.90;;;;;;4954677;28;20049;-64
2022/02/02 20:15:07;;;;;;;17.88;7.20;;;5.00;99.90;;;;;;4944679;28;20090;-64
2022/02/02 20:17:35;;;;;;;25.52;7.22;;;5.10;99.90;;;;;;4958912;28;20043;-52
2022/02/02 20:20:13;;;;;;;17.88;8.40;;;5.10;99.90;;;;;;4959865;28;20066;-48
2022/02/02 20:22:39;;;;;;;26.88;6.85;;;5.10;99.90;;;;;;4972024;28;20058;-50
2022/02/02 20:25:06;;;;;;;15.75;5.72;;;5.20;99.90;;;;;;4954445;28;20055;-50
2022/02/02 20:27:34;;;;;;;21.95;6.18;;;5.30;99.90;;;;;;4951905;28;20453;-48
2022/02/02 20:30:01;;;;;;;22.83;6.63;;;5.40;99.90;;;;;;4982081;28;20385;-48
2022/02/02 20:32:27;;;;;;;20.23;6.47;;;5.40;99.90;;;;;;4956104;28;20051;-49
2022/02/02 20:34:53;;;;;;;25.15;6.20;;;5.40;99.90;;;;;;4941694;28;20046;-48
2022/02/02 20:37:20;;;;;;;23.10;6.72;;;5.50;99.90;;;;;;4961192;28;20046;-64
2022/02/02 20:39:55;;;;;;;22.73;6.38;;;5.50;99.90;;;;;;4962553;28;20050;-64
2022/02/02 20:42:37;;;;;;;23.90;6.32;;;5.60;99.90;;;;;;4965210;28;20398;-64
2022/02/02 21:04:56;;;;;;;24.17;5.90;;;5.90;99.90;;;;;;4959376;28;20035;-49
2022/02/02 21:10:13;;;;;;;24.17;7.43;;;6.00;99.90;;;;;;5001132;28;20042;-49
2022/02/02 21:15:30;;;;;;;22.00;7.78;;;6.10;99.90;;;;;;4945427;28;20480;-48
2022/02/02 21:18:04;;;;;;;;;;;6.10;99.90;;;;;;4975412;28;20058;-48
2022/02/02 21:20:34;;;;;;;28.25;10.20;;;6.10;99.90;;;;;;4961799;28;19922;-48
2022/02/02 21:23:10;;;;;;;38.47;12.48;;;6.10;99.90;;;;;;4944534;28;20539;-49
2022/02/02 21:25:43;;;;;;;36.60;13.25;;;6.10;99.90;;;;;;4943243;28;20092;-48
2022/02/02 21:28:10;;;;;;;37.63;12.68;;;6.20;99.90;;;;;;4919784;28;20116;-50
2022/02/02 21:30:41;;;;;;;40.45;13.65;;;6.20;99.90;;;;;;4941387;28;20046;-50
2022/02/02 21:33:12;;;;;;;42.72;15.63;;;6.20;99.90;;;;;;4958136;28;20043;-50
2022/02/02 21:35:39;;;;;;;44.05;16.23;;;6.20;99.90;;;;;;4956205;28;20051;-52
2022/02/02 21:38:33;;;;;;;49.90;16.83;;;6.20;99.90;;;;;;4938292;28;20512;-52
2022/02/02 21:40:55;;;;;;;42.35;17.52;;;6.30;99.90;;;;;;4951399;28;20129;-48
2022/02/02 21:43:24;;;;;;;55.30;19.10;;;6.40;99.90;;;;;;4957820;28;20047;-51
2022/02/02 21:45:51;;;;;;;55.97;19.50;;;6.40;99.90;;;;;;4977158;28;20417;-52
2022/02/02 21:48:17;;;;;;;51.42;19.63;;;6.40;99.90;;;;;;4953651;28;20399;-50
2022/02/02 21:53:16;;;;;;;44.20;17.33;;;6.40;99.90;;;;;;4948904;28;20053;-51
2022/02/02 21:55:42;;;;;;;42.75;18.17;;;6.40;99.90;;;;;;4947895;28;20173;-49
2022/02/02 21:58:08;;;;;;;43.67;18.92;;;6.50;99.90;;;;;;4952257;28;20051;-50
2022/02/02 22:00:36;;;;;;;55.95;18.83;;;6.40;99.90;;;;;;4973223;28;20058;-52
2022/02/02 22:03:02;;;;;;;51.33;20.70;;;6.50;99.90;;;;;;4964004;28;20050;-50
2022/02/02 22:05:28;;;;;;;60.35;18.77;;;6.50;99.90;;;;;;4971565;28;20688;-50
2022/02/02 22:07:55;;;;;;;47.53;18.58;;;6.60;99.90;;;;;;4956215;28;20047;-49
2022/02/02 22:10:21;;;;;;;39.90;17.27;;;6.50;99.90;;;;;;4945637;28;20510;-53
2022/02/02 22:12:48;;;;;;;53.40;19.40;;;6.60;99.90;;;;;;4965541;28;20051;-53
2022/02/02 22:15:21;;;;;;;49.30;21.55;;;6.60;99.90;;;;;;5012350;28;20064;-51
2022/02/02 22:17:47;;;;;;;55.85;22.35;;;6.70;99.90;;;;;;4942199;29;20051;-51
2022/02/02 22:20:16;;;;;;;42.00;21.23;;;6.80;99.90;;;;;;4961090;28;20085;-50
2022/02/02 22:22:43;;;;;;;55.75;22.13;;;6.80;99.90;;;;;;4961259;28;20047;-65
2022/02/02 22:25:10;;;;;;;54.35;21.90;;;6.80;99.90;;;;;;4961511;28;20446;-64
2022/02/02 22:27:37;;;;;;;57.08;23.30;;;6.80;99.90;;;;;;5022628;28;20044;-65
2022/02/02 22:30:04;;;;;;;66.82;25.50;;;6.80;99.90;;;;;;4962593;28;20047;-64
2022/02/02 22:32:31;;;;;;;59.45;24.10;;;6.80;99.90;;;;;;4990337;28;20580;-64
2022/02/02 22:34:57;;;;;;;65.97;26.02;;;6.80;99.90;;;;;;4960709;28;20127;-64
2022/02/02 22:37:24;;;;;;;65.93;26.38;;;6.80;99.90;;;;;;5033737;28;20135;-66
2022/02/02 22:39:52;;;;;;;65.15;26.00;;;6.80;99.90;;;;;;5061327;28;20083;-64
2022/02/02 22:42:21;;;;;;;64.60;26.05;;;6.80;99.90;;;;;;5051286;28;20371;-53
2022/02/02 22:44:48;;;;;;;54.50;26.27;;;6.80;99.90;;;;;;5005480;28;20133;-49
2022/02/02 22:47:16;;;;;;;60.17;27.45;;;6.80;99.90;;;;;;4959438;28;20051;-48
2022/02/02 22:49:46;;;;;;;57.90;26.60;;;6.80;99.90;;;;;;4959612;28;20074;-64
2022/02/02 22:52:12;;;;;;;68.40;28.30;;;6.80;99.90;;;;;;4931694;28;20158;-51
2022/02/02 22:54:41;;;;;;;68.90;28.98;;;6.90;99.90;;;;;;4950958;28;20054;-49
2022/02/02 22:57:07;;;;;;;58.78;28.33;;;6.90;99.90;;;;;;4975826;28;20062;-50
2022/02/02 22:59:34;;;;;;;63.30;29.33;;;6.90;99.90;;;;;;4969541;28;20093;-51
2022/02/02 23:02:13;;;;;;;67.38;29.00;;;6.90;99.90;;;;;;4949269;28;20043;-52
2022/02/02 23:04:40;;;;;;;70.97;29.52;;;6.90;99.90;;;;;;4963681;28;20054;-51
2022/02/02 23:07:06;;;;;;;62.28;28.48;;;7.00;99.90;;;;;;4976115;28;20050;-50
2022/02/02 23:09:35;;;;;;;72.95;30.58;;;6.90;99.90;;;;;;4967090;28;20069;-49
2022/02/02 23:12:01;;;;;;;71.88;30.95;;;7.00;99.90;;;;;;4983695;28;20057;-64
2022/02/02 23:14:33;;;;;;;83.13;32.67;;;7.00;99.90;;;;;;4968874;28;20081;-64
2022/02/02 23:17:00;;;;;;;71.88;32.25;;;7.00;99.90;;;;;;4973737;28;20130;-64
2022/02/02 23:19:26;;;;;;;86.80;35.83;;;7.00;99.90;;;;;;4968394;28;20042;-64
2022/02/02 23:21:52;;;;;;;88.75;36.53;;;7.10;99.90;;;;;;4967365;28;20498;-64
2022/02/02 23:24:19;;;;;;;86.63;35.88;;;7.10;99.90;;;;;;4951123;28;20064;-50
2022/02/02 23:26:48;;;;;;;97.35;39.00;;;7.10;99.90;;;;;;4968875;28;20051;-50
2022/02/02 23:29:17;;;;;;;105.38;40.58;;;7.20;99.90;;;;;;4975628;28;20490;-52
2022/02/02 23:31:44;;;;;;;110.00;41.70;;;7.20;99.90;;;;;;4966894;28;20510;-49
2022/02/02 23:34:14;;;;;;;108.05;43.45;;;7.30;99.90;;;;;;4968223;28;20051;-52
2022/02/02 23:36:40;;;;;;;114.50;45.25;;;7.30;99.90;;;;;;4967896;28;20497;-64
2022/02/02 23:39:07;;;;;;;120.88;43.42;;;7.40;99.90;;;;;;4974326;28;20047;-64
2022/02/02 23:44:17;;;;;;;122.28;44.72;;;7.50;99.90;;;;;;4968289;28;20506;-64
2022/02/02 23:46:48;;;;;;;108.22;44.55;;;7.50;99.90;;;;;;4966160;28;20051;-64
2022/02/02 23:49:21;;;;;;;117.07;45.10;;;7.50;99.90;;;;;;4957603;28;20473;-65
2022/02/02 23:51:48;;;;;;;119.32;45.47;;;7.60;99.90;;;;;;4965828;28;20089;-64
2022/02/02 23:54:17;;;;;;;126.03;46.50;;;7.60;99.90;;;;;;4982790;28;20112;-64
2022/02/02 23:56:58;;;;;;;126.50;46.22;;;7.70;99.90;;;;;;4982836;28;20057;-64
